Terminal Aerodrome Forecast
Issued by NWS Mobile, AL

Home | Current Version | Previous Version | Text Only | Print | Product List | Glossary On
Versions: 1 2 3 4 5 6 7 8 9 10 11 12 13 14
000
FTUS44 KMOB 230534
TAFPNS
TAF
KPNS 230534Z 2306/2406 00000KT P6SM VCSH OVC110
      TEMPO 2306/2310 3SM +TSRA BR BKN015CB
     FM231200 21012KT P6SM -TSRA OVC025CB
     FM232300 24016KT P6SM VCSH SCT015 OVC050=

USA.gov is the U.S. government's official web portal to all federal, state and local government web resources and services.